MAPA DE AEROPUERTO

INFORMACIÓN METAR y TAF

METAR FOR LEIB
ADDS - METARS form results

(1615 UTC 07 May 2021)
Data provider http://aviationweather.gov/metar/data/
 
METAR text: LEIB 071600Z 08004KT 030V150 CAVOK 24/13 Q1016 NOSIG
Conditions at: LEIB (IBIZA/ES CODOLA , ES) observed 1600 UTC 07 May 2021
Temperature: 24.0°C (75°F)
Dewpoint: 13.0°C (55°F) [RH = 50%]
Pressure (altimeter): 30.00 inches Hg (1016.0 mb)
Winds: from the E (80 degrees) at 5 MPH (4 knots; 2.1 m/s)
Visibility: 6 or more miles (10+ km)
Ceiling: ceiling and visibility are OK
Clouds: unknown
Weather: no significant weather observed at this time

METAR text: LEIB 071530Z 09004KT 030V160 CAVOK 24/13 Q1016 NOSIG
Conditions at: LEIB (IBIZA/ES CODOLA , ES) observed 1530 UTC 07 May 2021
Temperature: 24.0°C (75°F)
Dewpoint: 13.0°C (55°F) [RH = 50%]
Pressure (altimeter): 30.00 inches Hg (1016.0 mb)
Winds: from the E (90 degrees) at 5 MPH (4 knots; 2.1 m/s)
Visibility: 6 or more miles (10+ km)
Ceiling: ceiling and visibility are OK
Clouds: unknown
Weather: no significant weather observed at this time

Forecast for: LEIB (IBIZA/ES CODOLA , ES)
Text: TAF LEIB 071400Z 0715/0815 12008KT 9999 FEW015 TX23/0812Z TN15/0806Z
Forecast period: 1500 to 1800 UTC 07 May 2021
Forecast type: FROM: standard forecast or significant change
Winds: from the ESE (120 degrees) at 9 MPH (8 knots; 4.1 m/s)
Visibility: 6 or more miles (10+ km)
Ceiling: at least 12,000 feet AGL
Clouds: few clouds at 1500 feet AGL
Weather: no significant weather forecast for this period
Text: BECMG 0718/0720 VRB03KT
Forecast period: 1800 UTC 07 May 2021 to 0800 UTC 08 May 2021
Forecast type: BECOMING: Conditions expected to become as follows by 2000 UTC 07 May 2021
Winds: variable direction winds at 3 MPH (3 knots; 1.5 m/s)
Visibility: 6 or more miles (10+ km)
Ceiling: at least 12,000 feet AGL
Clouds: few clouds at 1500 feet AGL
Weather: no significant weather forecast for this period
Text: PROB40
Forecast period: 2300 UTC 07 May 2021 to 0900 UTC 08 May 2021
Forecast type: TEMPORARY: The following changes expected for less than half the time period
Visibility: 1.24 miles (2.00 km)
Ceiling: 400 feet AGL
Clouds: broken clouds at 400 feet AGL
Weather: BR  (mist)
Text: TEMPO 0723/0809 2000 BR BKN004
Forecast period: 0800 to 1500 UTC 08 May 2021
Forecast type: BECOMING: Conditions expected to become as follows by 1000 UTC 08 May 2021
Winds: from the E (90 degrees) at 12 MPH (10 knots; 5.1 m/s)
Visibility: 6 or more miles (10+ km)
Ceiling: at least 12,000 feet AGL
Clouds: few clouds at 1500 feet AGL
Weather: no significant weather forecast for this period